createdAt,value
2018-10-15T00:02:03.192Z,13.50
2018-10-15T00:04:31.913Z,13.60
2018-10-15T00:07:00.725Z,13.50
2018-10-15T00:09:29.498Z,13.50
2018-10-15T00:11:58.269Z,13.40
2018-10-15T00:14:27.039Z,13.40
2018-10-15T00:16:55.905Z,13.30
2018-10-15T00:19:24.784Z,13.20
2018-10-15T00:21:53.562Z,13.20
2018-10-15T00:24:22.462Z,13.00
2018-10-15T00:26:51.277Z,13.00
2018-10-15T00:29:20.071Z,13.00
2018-10-15T00:31:48.894Z,13.00
2018-10-15T00:34:17.769Z,13.00
2018-10-15T00:36:46.530Z,13.00
2018-10-15T00:39:15.359Z,13.00
2018-10-15T00:41:44.106Z,13.00
2018-10-15T00:44:12.907Z,13.00
2018-10-15T00:46:41.938Z,13.00
2018-10-15T00:49:11.074Z,12.90
2018-10-15T00:51:40.131Z,12.90
2018-10-15T00:54:09.042Z,12.90
2018-10-15T00:56:37.877Z,12.90
2018-10-15T00:59:06.979Z,12.80
2018-10-15T01:01:35.792Z,12.90
2018-10-15T01:04:04.616Z,12.80
2018-10-15T01:06:33.618Z,12.80
2018-10-15T01:09:02.434Z,12.80
2018-10-15T01:11:31.178Z,12.80
2018-10-15T01:14:00.021Z,12.80
2018-10-15T01:16:29.017Z,12.70
2018-10-15T01:19:10.961Z,12.70
2018-10-15T01:21:44.344Z,12.60
2018-10-15T01:24:17.445Z,12.60
2018-10-15T01:26:54.273Z,12.70
2018-10-15T01:29:27.267Z,12.70
2018-10-15T01:32:01.247Z,12.70
2018-10-15T01:34:34.532Z,12.60
2018-10-15T01:37:16.705Z,12.50
2018-10-15T01:39:45.613Z,12.40
2018-10-15T01:42:14.433Z,12.50
2018-10-15T01:44:43.201Z,12.40
2018-10-15T01:47:12.198Z,12.40
2018-10-15T01:49:41.014Z,12.30
2018-10-15T01:52:09.913Z,12.40
2018-10-15T01:54:38.685Z,12.40
2018-10-15T01:57:07.590Z,12.40
2018-10-15T01:59:36.446Z,12.30
2018-10-15T02:02:05.450Z,12.20
2018-10-15T02:04:34.432Z,12.20
2018-10-15T02:07:03.327Z,12.20
2018-10-15T02:09:32.106Z,12.30
2018-10-15T02:12:00.881Z,12.30
2018-10-15T02:14:29.706Z,12.30
2018-10-15T02:16:58.557Z,12.20
2018-10-15T02:19:27.280Z,12.10
2018-10-15T02:21:56.041Z,12.00
2018-10-15T02:24:24.785Z,12.10
2018-10-15T02:26:53.581Z,12.20
2018-10-15T02:29:22.369Z,12.10
2018-10-15T02:31:51.189Z,12.10
2018-10-15T02:34:19.949Z,12.10
2018-10-15T02:36:48.858Z,12.10
2018-10-15T02:39:17.917Z,12.00
2018-10-15T02:41:46.794Z,12.00
2018-10-15T02:44:15.587Z,11.90
2018-10-15T02:46:44.432Z,12.00
2018-10-15T02:49:13.209Z,11.90
2018-10-15T02:51:41.938Z,11.80
2018-10-15T02:54:10.765Z,11.80
2018-10-15T02:56:39.530Z,11.70
2018-10-15T02:59:08.397Z,11.70
2018-10-15T03:01:37.202Z,11.60
2018-10-15T03:04:06.073Z,11.60
2018-10-15T03:06:34.951Z,11.70
2018-10-15T03:09:04.933Z,11.70
2018-10-15T03:11:33.802Z,11.60
2018-10-15T03:14:02.608Z,11.60
2018-10-15T03:16:31.453Z,11.60
2018-10-15T03:19:00.237Z,11.60
2018-10-15T03:21:28.985Z,11.60
2018-10-15T03:23:57.950Z,11.50
2018-10-15T03:26:26.788Z,11.50
2018-10-15T03:28:55.579Z,11.50
2018-10-15T03:31:24.560Z,11.50
2018-10-15T03:33:53.371Z,11.40
2018-10-15T03:36:22.106Z,11.40
2018-10-15T03:38:51.053Z,11.30
2018-10-15T03:41:19.837Z,11.30
2018-10-15T03:43:48.584Z,11.30
2018-10-15T03:46:17.482Z,11.30
2018-10-15T03:48:46.424Z,11.40
2018-10-15T03:51:15.254Z,11.30
2018-10-15T03:53:44.103Z,11.40
2018-10-15T03:56:12.902Z,11.40
2018-10-15T03:58:41.965Z,11.30
2018-10-15T04:01:10.837Z,11.30
2018-10-15T04:03:39.638Z,11.30
2018-10-15T04:06:08.617Z,11.30
2018-10-15T04:08:37.542Z,11.20
2018-10-15T04:11:07.010Z,11.20
2018-10-15T04:13:35.828Z,11.10
2018-10-15T04:16:04.999Z,11.10
2018-10-15T04:18:34.003Z,11.10
2018-10-15T04:21:02.824Z,11.10
2018-10-15T04:23:31.660Z,11.10
2018-10-15T04:26:00.444Z,11.10
2018-10-15T04:28:29.309Z,11.20
2018-10-15T04:30:58.083Z,11.20
2018-10-15T04:33:26.927Z,11.20
2018-10-15T04:35:55.678Z,11.20
2018-10-15T04:38:24.409Z,11.10
2018-10-15T04:40:53.210Z,11.10
2018-10-15T04:43:22.134Z,11.10
2018-10-15T04:45:51.037Z,11.10
2018-10-15T04:48:20.152Z,11.10
2018-10-15T04:50:48.988Z,11.10
2018-10-15T04:53:17.913Z,11.00
2018-10-15T04:55:46.930Z,11.10
2018-10-15T04:58:15.922Z,11.10
2018-10-15T05:00:44.715Z,11.20
2018-10-15T05:03:13.429Z,11.20
2018-10-15T05:05:42.279Z,11.10
2018-10-15T05:08:11.173Z,11.10
2018-10-15T05:10:39.949Z,11.20
2018-10-15T05:13:08.689Z,11.10
2018-10-15T05:15:37.454Z,11.20
2018-10-15T05:18:06.341Z,11.20
2018-10-15T05:20:35.209Z,11.20
2018-10-15T05:23:04.046Z,11.10
2018-10-15T05:25:32.929Z,11.10
2018-10-15T05:28:01.828Z,11.20
2018-10-15T05:30:30.753Z,11.20
2018-10-15T05:32:59.408Z,11.20
2018-10-15T05:35:28.441Z,11.30
2018-10-15T05:37:57.257Z,11.20
2018-10-15T05:40:26.168Z,11.20
2018-10-15T05:42:55.292Z,11.20
2018-10-15T05:45:24.131Z,11.30
2018-10-15T05:47:53.009Z,11.30
2018-10-15T05:50:22.646Z,11.10
2018-10-15T05:52:51.592Z,11.20
2018-10-15T05:55:23.535Z,11.40
2018-10-15T05:57:52.340Z,11.40
2018-10-15T06:00:21.444Z,11.50
2018-10-15T06:02:50.439Z,11.40
2018-10-15T06:05:19.319Z,11.50
2018-10-15T06:07:48.218Z,11.50
2018-10-15T06:10:17.493Z,11.50
2018-10-15T06:12:49.085Z,11.60
2018-10-15T06:15:18.298Z,11.60
2018-10-15T06:17:47.258Z,11.60
2018-10-15T06:20:16.163Z,11.70
2018-10-15T06:22:45.276Z,11.80
2018-10-15T06:25:15.127Z,11.80
2018-10-15T06:27:44.483Z,11.80
2018-10-15T06:30:15.629Z,11.80
2018-10-15T06:32:44.455Z,11.90
2018-10-15T06:35:14.021Z,11.90
2018-10-15T06:37:42.920Z,11.90
2018-10-15T06:40:11.908Z,11.80
2018-10-15T06:42:41.400Z,11.70
2018-10-15T06:45:12.222Z,11.80
2018-10-15T06:47:41.249Z,11.90
2018-10-15T06:50:11.599Z,11.90
2018-10-15T06:52:40.534Z,12.00
2018-10-15T06:55:09.687Z,12.10
2018-10-15T06:57:39.196Z,12.20
2018-10-15T07:00:09.922Z,12.20
2018-10-15T07:02:39.278Z,12.30
2018-10-15T07:05:08.759Z,12.30
2018-10-15T07:07:37.790Z,12.40
2018-10-15T07:10:07.273Z,12.40
2018-10-15T07:12:36.165Z,12.50
2018-10-15T07:15:05.496Z,12.60
2018-10-15T07:17:34.785Z,12.70
2018-10-15T07:20:04.050Z,12.80
2018-10-15T07:22:33.143Z,12.90
2018-10-15T07:25:24.876Z,13.00
2018-10-15T07:27:53.747Z,13.20
2018-10-15T07:30:22.890Z,13.40
2018-10-15T07:32:52.265Z,13.60
2018-10-15T07:35:21.573Z,13.40
2018-10-15T07:37:50.530Z,13.50
2018-10-15T07:40:19.627Z,13.70
2018-10-15T07:42:48.538Z,13.90
2018-10-15T07:45:17.682Z,14.00
2018-10-15T07:47:46.622Z,13.90
2018-10-15T07:50:16.795Z,14.00
2018-10-15T07:52:46.287Z,14.20
2018-10-15T07:55:15.448Z,14.40
2018-10-15T07:57:44.461Z,14.50
2018-10-15T08:00:17.216Z,14.70
2018-10-15T08:02:52.319Z,14.90
2018-10-15T08:05:21.536Z,15.00
2018-10-15T08:07:51.127Z,15.20
2018-10-15T08:10:20.032Z,16.10
2018-10-15T08:12:49.853Z,19.00
2018-10-15T08:15:19.986Z,21.50
2018-10-15T08:17:48.756Z,23.60
2018-10-15T08:20:18.804Z,24.90
2018-10-15T08:22:48.908Z,26.50
2018-10-15T08:25:18.127Z,27.90
2018-10-15T08:27:47.214Z,28.60
2018-10-15T08:30:18.893Z,29.70
2018-10-15T08:32:47.876Z,30.40
2018-10-15T08:35:19.343Z,31.50
2018-10-15T08:37:48.452Z,32.20
2018-10-15T08:40:19.060Z,33.40
2018-10-15T08:42:49.533Z,33.20
2018-10-15T08:45:19.917Z,34.30
2018-10-15T08:47:49.248Z,35.80
2018-10-15T08:50:19.025Z,35.90
2018-10-15T08:52:49.094Z,37.40
2018-10-15T08:55:18.415Z,38.20
2018-10-15T08:57:47.397Z,38.20
2018-10-15T09:00:25.282Z,38.40
2018-10-15T09:02:54.279Z,39.10
2018-10-15T09:05:23.276Z,40.40
2018-10-15T09:07:52.643Z,40.90
2018-10-15T09:10:26.321Z,41.00
2018-10-15T09:13:12.543Z,40.20
2018-10-15T09:15:42.557Z,39.80
2018-10-15T09:18:12.343Z,41.50
2018-10-15T09:20:42.261Z,42.40
2018-10-15T09:23:12.105Z,43.30
2018-10-15T09:25:40.967Z,43.70
2018-10-15T09:28:09.844Z,44.40
2018-10-15T09:30:39.744Z,44.70
2018-10-15T09:33:08.684Z,45.20
2018-10-15T09:35:37.604Z,45.70
2018-10-15T09:38:07.127Z,45.30
2018-10-15T09:40:36.011Z,45.00
2018-10-15T09:43:05.165Z,45.10
2018-10-15T09:45:34.347Z,46.10
2018-10-15T09:48:03.387Z,46.50
2018-10-15T09:50:32.429Z,47.10
2018-10-15T09:53:01.460Z,46.70
2018-10-15T09:55:30.860Z,46.10
2018-10-15T09:57:59.902Z,45.90
2018-10-15T10:00:34.121Z,45.90
2018-10-15T10:03:03.119Z,45.10
2018-10-15T10:05:32.209Z,45.20
2018-10-15T10:08:01.082Z,45.40
2018-10-15T10:10:29.880Z,44.80
2018-10-15T10:12:58.870Z,46.00
2018-10-15T10:15:27.673Z,47.20
2018-10-15T10:18:04.596Z,46.60
2018-10-15T10:20:33.802Z,47.10
2018-10-15T10:23:03.300Z,47.50
2018-10-15T10:25:32.518Z,47.70
2018-10-15T10:28:01.437Z,47.90
2018-10-15T10:30:30.490Z,47.70
2018-10-15T10:32:59.739Z,47.30
2018-10-15T10:35:49.470Z,48.40
2018-10-15T10:38:53.592Z,48.50
2018-10-15T10:41:22.682Z,48.30
2018-10-15T10:43:51.657Z,47.90
2018-10-15T10:46:21.581Z,48.90
2018-10-15T10:48:50.911Z,49.20
2018-10-15T10:51:19.879Z,49.70
2018-10-15T10:53:49.237Z,48.40
2018-10-15T10:56:18.134Z,48.90
2018-10-15T10:58:47.163Z,48.30
2018-10-15T11:01:22.258Z,47.90
2018-10-15T11:03:51.405Z,48.50
2018-10-15T11:06:20.821Z,48.50
2018-10-15T11:08:49.666Z,48.90
2018-10-15T11:11:18.600Z,48.20
2018-10-15T11:13:47.310Z,48.60
2018-10-15T11:16:16.180Z,48.00
2018-10-15T11:18:45.181Z,47.60
2018-10-15T11:21:14.009Z,48.00
2018-10-15T11:23:42.763Z,48.20
2018-10-15T11:26:11.800Z,48.40
2018-10-15T11:28:40.985Z,48.20
2018-10-15T11:31:10.148Z,47.00
2018-10-15T11:33:39.208Z,43.30
2018-10-15T11:36:07.953Z,39.60
2018-10-15T11:38:36.832Z,38.00
2018-10-15T11:41:06.184Z,36.80
2018-10-15T11:43:35.940Z,39.10
2018-10-15T11:46:05.460Z,38.20
2018-10-15T11:48:34.565Z,36.40
2018-10-15T11:51:03.583Z,34.40
2018-10-15T11:53:32.512Z,32.30
2018-10-15T11:56:01.519Z,30.60
2018-10-15T11:58:30.417Z,29.50
2018-10-15T12:00:59.341Z,29.10
2018-10-15T12:03:28.300Z,29.20
2018-10-15T12:05:57.336Z,29.20
2018-10-15T12:08:26.221Z,28.60
2018-10-15T12:10:55.282Z,28.10
2018-10-15T12:13:24.765Z,27.60
2018-10-15T12:15:53.784Z,27.30
2018-10-15T12:18:22.687Z,27.10
2018-10-15T12:20:51.851Z,26.90
2018-10-15T12:23:21.167Z,26.70
2018-10-15T12:25:50.215Z,26.40
2018-10-15T12:28:19.561Z,26.10
2018-10-15T12:30:48.784Z,26.10
2018-10-15T12:33:17.994Z,26.20
2018-10-15T12:35:46.884Z,26.30
2018-10-15T12:38:15.889Z,26.10
2018-10-15T12:40:45.165Z,26.00
2018-10-15T12:43:14.382Z,25.90
2018-10-15T12:45:48.484Z,25.80
2018-10-15T12:48:17.937Z,26.00
2018-10-15T12:50:47.085Z,25.90
2018-10-15T12:53:16.973Z,25.90
2018-10-15T12:55:46.313Z,25.80
2018-10-15T12:58:15.596Z,25.80
2018-10-15T13:00:44.594Z,25.80
2018-10-15T13:03:13.346Z,25.70
2018-10-15T13:05:42.188Z,25.80
2018-10-15T13:08:11.117Z,25.70
2018-10-15T13:10:39.937Z,25.70
2018-10-15T13:13:08.781Z,25.50
2018-10-15T13:15:37.664Z,25.60
2018-10-15T13:18:06.578Z,25.50
2018-10-15T13:20:35.482Z,25.40
2018-10-15T13:23:04.260Z,25.30
2018-10-15T13:25:33.177Z,25.20
2018-10-15T13:28:02.325Z,25.20
2018-10-15T13:30:31.226Z,25.30
2018-10-15T13:33:00.150Z,25.20
2018-10-15T13:35:29.077Z,25.50
2018-10-15T13:37:58.003Z,25.80
2018-10-15T13:40:27.206Z,26.20
2018-10-15T13:42:57.237Z,26.30
2018-10-15T13:45:26.840Z,26.10
2018-10-15T13:47:55.859Z,25.90
2018-10-15T13:50:25.060Z,25.90
2018-10-15T13:52:54.103Z,25.90
2018-10-15T13:55:23.518Z,25.90
2018-10-15T13:57:52.692Z,25.90
2018-10-15T14:00:33.610Z,25.80
2018-10-15T14:03:02.568Z,25.80
2018-10-15T14:05:31.584Z,25.90
2018-10-15T14:08:00.557Z,25.70
2018-10-15T14:10:29.455Z,25.70
2018-10-15T14:12:58.570Z,25.70
2018-10-15T14:15:28.046Z,25.60
2018-10-15T14:17:57.269Z,25.60
2018-10-15T14:20:26.547Z,25.70
2018-10-15T14:22:55.396Z,25.70
2018-10-15T14:25:24.344Z,25.60
2018-10-15T14:27:53.368Z,25.50
2018-10-15T14:30:22.182Z,25.50
2018-10-15T14:32:51.782Z,25.70
2018-10-15T14:35:20.524Z,25.60
2018-10-15T14:37:49.192Z,25.60
2018-10-15T14:40:19.528Z,25.40
2018-10-15T14:42:48.720Z,25.40
2018-10-15T14:45:18.387Z,25.40
2018-10-15T14:47:47.494Z,25.50
2018-10-15T14:50:18.032Z,25.30
2018-10-15T14:52:48.146Z,25.20
2018-10-15T14:55:16.935Z,25.20
2018-10-15T14:57:45.903Z,25.30
2018-10-15T15:00:15.809Z,25.20
2018-10-15T15:02:46.330Z,25.10
2018-10-15T15:05:15.862Z,25.10
2018-10-15T15:07:44.676Z,25.00
2018-10-15T15:10:25.053Z,24.90
2018-10-15T15:13:04.899Z,24.90
2018-10-15T15:15:33.652Z,24.80
2018-10-15T15:18:02.630Z,24.70
2018-10-15T15:20:31.393Z,24.70
2018-10-15T15:23:00.076Z,24.70
2018-10-15T15:25:28.836Z,24.60
2018-10-15T15:27:57.671Z,24.50
2018-10-15T15:30:26.561Z,24.50
2018-10-15T15:32:55.721Z,24.30
2018-10-15T15:35:26.431Z,24.30
2018-10-15T15:37:55.195Z,24.30
2018-10-15T15:40:23.936Z,24.10
2018-10-15T15:42:53.200Z,24.00
2018-10-15T15:45:23.095Z,24.00
2018-10-15T15:47:51.902Z,23.80
2018-10-15T15:50:22.949Z,23.70
2018-10-15T15:52:51.874Z,23.70
2018-10-15T15:55:20.677Z,23.50
2018-10-15T15:57:49.522Z,23.30
2018-10-15T16:00:18.556Z,23.20
2018-10-15T16:02:47.781Z,23.10
2018-10-15T16:05:16.649Z,23.00
2018-10-15T16:07:45.710Z,22.80
2018-10-15T16:10:14.652Z,22.60
2018-10-15T16:12:43.605Z,22.50
2018-10-15T16:15:12.603Z,22.40
2018-10-15T16:17:41.475Z,22.30
2018-10-15T16:20:11.069Z,22.10
2018-10-15T16:22:40.437Z,22.00
2018-10-15T16:25:09.719Z,21.90
2018-10-15T16:27:38.672Z,21.70
2018-10-15T16:30:09.165Z,21.60
2018-10-15T16:32:38.538Z,21.50
2018-10-15T16:35:08.417Z,21.40
2018-10-15T16:37:37.304Z,21.30
2018-10-15T16:40:07.170Z,21.10
2018-10-15T16:42:36.172Z,20.90
2018-10-15T16:45:06.593Z,20.80
2018-10-15T16:47:35.542Z,20.70
2018-10-15T16:50:08.373Z,20.70
2018-10-15T16:52:37.891Z,20.70
2018-10-15T16:55:09.172Z,20.60
2018-10-15T16:57:39.009Z,20.60
2018-10-15T17:00:08.576Z,20.60
2018-10-15T17:02:37.891Z,20.50
2018-10-15T17:05:08.269Z,20.50
2018-10-15T17:07:37.511Z,20.40
2018-10-15T17:10:08.151Z,20.30
2018-10-15T17:12:37.239Z,20.20
2018-10-15T17:15:07.265Z,20.10
2018-10-15T17:17:36.414Z,20.10
2018-10-15T17:20:05.867Z,20.00
2018-10-15T17:22:35.017Z,19.90
2018-10-15T17:25:04.140Z,19.80
2018-10-15T17:27:33.057Z,19.70
2018-10-15T17:30:01.961Z,19.60
2018-10-15T17:32:30.993Z,19.50
2018-10-15T17:34:59.896Z,19.40
2018-10-15T17:37:28.795Z,19.30
2018-10-15T17:39:57.753Z,19.20
2018-10-15T17:42:26.498Z,19.20
2018-10-15T17:44:55.408Z,19.00
2018-10-15T17:47:24.330Z,19.00
2018-10-15T17:49:53.077Z,19.00
2018-10-15T17:52:21.909Z,19.00
2018-10-15T17:54:50.789Z,19.10
2018-10-15T17:57:19.721Z,19.00
2018-10-15T17:59:48.578Z,19.00
2018-10-15T18:02:17.409Z,18.90
2018-10-15T18:04:46.189Z,18.90
2018-10-15T18:07:14.974Z,18.90
2018-10-15T18:09:43.682Z,18.90
2018-10-15T18:12:12.805Z,18.80
2018-10-15T18:14:41.796Z,18.80
2018-10-15T18:17:10.617Z,18.80
2018-10-15T18:19:39.328Z,18.80
2018-10-15T18:22:08.192Z,18.70
2018-10-15T18:24:37.030Z,18.70
2018-10-15T18:27:05.972Z,18.70
2018-10-15T18:29:34.793Z,18.60
2018-10-15T18:32:03.733Z,18.60
2018-10-15T18:34:32.501Z,18.60
2018-10-15T18:37:01.335Z,18.50
2018-10-15T18:39:30.182Z,18.60
2018-10-15T18:41:59.142Z,18.70
2018-10-15T18:44:28.097Z,18.70
2018-10-15T18:46:56.904Z,18.70
2018-10-15T18:49:26.110Z,18.70
2018-10-15T18:51:55.040Z,18.60
2018-10-15T18:54:24.383Z,18.70
2018-10-15T18:56:53.409Z,18.60
2018-10-15T18:59:22.283Z,18.60
2018-10-15T19:01:51.204Z,18.50
2018-10-15T19:04:19.999Z,18.30
2018-10-15T19:06:48.978Z,18.30
2018-10-15T19:09:17.708Z,18.30
2018-10-15T19:11:46.662Z,18.20
2018-10-15T19:14:15.608Z,18.20
2018-10-15T19:16:44.677Z,18.20
2018-10-15T19:19:13.704Z,18.20
2018-10-15T19:21:42.726Z,18.20
2018-10-15T19:24:11.924Z,18.20
2018-10-15T19:26:41.205Z,18.20
2018-10-15T19:29:10.011Z,18.10
2018-10-15T19:31:38.922Z,18.10
2018-10-15T19:34:07.713Z,18.10
2018-10-15T19:36:36.708Z,17.90
2018-10-15T19:39:09.135Z,17.90
2018-10-15T19:41:38.136Z,17.80
2018-10-15T19:44:07.218Z,17.70
2018-10-15T19:46:36.329Z,17.60
2018-10-15T19:49:05.507Z,17.60
2018-10-15T19:51:34.453Z,17.40
2018-10-15T19:54:04.180Z,17.30
2018-10-15T19:56:34.563Z,17.30
2018-10-15T19:59:04.425Z,17.20
2018-10-15T20:01:33.620Z,17.20
2018-10-15T20:04:06.745Z,17.10
2018-10-15T20:06:40.884Z,17.00
2018-10-15T20:09:11.703Z,17.00
2018-10-15T20:11:40.698Z,16.90
2018-10-15T20:14:09.649Z,16.70
2018-10-15T20:16:38.662Z,16.70
2018-10-15T20:19:07.524Z,16.60
2018-10-15T20:21:36.652Z,16.50
2018-10-15T20:24:06.118Z,16.60
2018-10-15T20:26:35.110Z,16.50
2018-10-15T20:29:04.217Z,16.50
2018-10-15T20:31:33.034Z,16.50
2018-10-15T20:34:01.847Z,16.40
2018-10-15T20:36:30.731Z,16.20
2018-10-15T20:38:59.604Z,16.30
2018-10-15T20:41:28.536Z,16.30
2018-10-15T20:43:57.418Z,16.30
2018-10-15T20:46:26.253Z,16.30
2018-10-15T20:48:55.238Z,16.30
2018-10-15T20:51:24.146Z,16.20
2018-10-15T20:53:53.003Z,16.20
2018-10-15T20:56:21.729Z,16.10
2018-10-15T20:58:50.510Z,16.00
2018-10-15T21:01:19.378Z,15.80
2018-10-15T21:03:48.264Z,15.80
2018-10-15T21:06:17.058Z,15.70
2018-10-15T21:08:45.910Z,15.70
2018-10-15T21:11:14.751Z,15.60
2018-10-15T21:13:43.524Z,15.60
2018-10-15T21:16:12.511Z,15.50
2018-10-15T21:18:41.270Z,15.50
2018-10-15T21:21:10.143Z,15.50
2018-10-15T21:23:40.463Z,15.50
2018-10-15T21:26:09.941Z,15.50
2018-10-15T21:28:38.740Z,15.40
2018-10-15T21:31:07.910Z,15.30
2018-10-15T21:33:36.771Z,13.80
2018-10-15T21:36:05.721Z,15.30
2018-10-15T21:38:34.532Z,15.30
2018-10-15T21:41:03.389Z,15.30
2018-10-15T21:43:32.190Z,15.20
2018-10-15T21:46:01.091Z,15.10
2018-10-15T21:48:29.861Z,15.10
2018-10-15T21:50:58.619Z,15.00
2018-10-15T21:53:27.358Z,15.00
2018-10-15T21:55:56.135Z,15.10
2018-10-15T21:58:24.850Z,15.00
2018-10-15T22:00:54.319Z,14.90
2018-10-15T22:03:23.010Z,14.90
2018-10-15T22:05:51.888Z,14.90
2018-10-15T22:08:20.801Z,14.80
2018-10-15T22:10:49.722Z,14.80
2018-10-15T22:13:18.625Z,14.70
2018-10-15T22:15:47.478Z,14.60
2018-10-15T22:18:16.231Z,14.60
2018-10-15T22:20:45.085Z,14.50
2018-10-15T22:23:13.871Z,14.50
2018-10-15T22:25:42.637Z,14.40
2018-10-15T22:28:11.396Z,14.40
2018-10-15T22:30:40.200Z,14.40
2018-10-15T22:33:09.106Z,14.40
2018-10-15T22:35:37.901Z,14.40
2018-10-15T22:38:06.788Z,14.30
2018-10-15T22:40:35.716Z,14.10
2018-10-15T22:43:04.576Z,14.00
2018-10-15T22:45:33.568Z,13.90
2018-10-15T22:48:02.320Z,13.80
2018-10-15T22:50:31.128Z,13.80
2018-10-15T22:52:59.985Z,13.80
2018-10-15T22:55:28.848Z,14.00
2018-10-15T22:57:57.559Z,13.90
2018-10-15T23:00:26.347Z,13.90
2018-10-15T23:02:55.150Z,14.00
2018-10-15T23:05:23.969Z,13.80
2018-10-15T23:07:52.834Z,13.80
2018-10-15T23:10:27.136Z,13.90
2018-10-15T23:12:56.037Z,13.80
2018-10-15T23:15:24.894Z,13.70
2018-10-15T23:17:53.851Z,13.70
2018-10-15T23:20:22.606Z,13.60
2018-10-15T23:22:51.541Z,13.60
2018-10-15T23:25:20.302Z,13.60
2018-10-15T23:27:49.347Z,13.40
2018-10-15T23:30:18.113Z,13.30
2018-10-15T23:32:47.081Z,13.30
2018-10-15T23:35:15.971Z,13.40
2018-10-15T23:37:44.758Z,13.40
2018-10-15T23:40:14.405Z,13.30
2018-10-15T23:42:43.202Z,13.40
2018-10-15T23:45:13.117Z,13.40
2018-10-15T23:47:42.113Z,13.40
2018-10-15T23:50:13.400Z,13.30
2018-10-15T23:52:42.341Z,13.30
2018-10-15T23:55:12.404Z,13.10
2018-10-15T23:57:41.177Z,13.10
